createdAt,value
2023-02-14T00:01:31.441Z,103061.52
2023-02-14T00:04:01.301Z,103063.40
2023-02-14T00:06:33.267Z,103064.02
2023-02-14T00:09:22.501Z,103061.82
2023-02-14T00:11:50.580Z,103060.38
2023-02-14T00:14:37.216Z,103061.14
2023-02-14T00:17:05.243Z,103057.13
2023-02-14T00:19:34.927Z,103060.70
2023-02-14T00:22:03.666Z,103064.29
2023-02-14T00:24:31.784Z,103066.06
2023-02-14T00:27:00.049Z,103062.60
2023-02-14T00:29:29.662Z,103062.59
2023-02-14T00:31:57.761Z,103058.84
2023-02-14T00:34:26.078Z,103061.34
2023-02-14T00:36:54.080Z,103060.71
2023-02-14T00:39:22.353Z,103058.84
2023-02-14T00:41:50.381Z,103059.33
2023-02-14T00:44:18.407Z,103060.23
2023-02-14T00:46:46.410Z,103059.30
2023-02-14T00:49:14.581Z,103061.25
2023-02-14T00:51:42.585Z,103064.31
2023-02-14T00:54:10.557Z,103069.86
2023-02-14T00:56:38.546Z,103070.67
2023-02-14T00:59:06.467Z,103068.05
2023-02-14T01:01:34.438Z,103071.27
2023-02-14T01:04:05.090Z,103069.71
2023-02-14T01:06:33.147Z,103071.46
2023-02-14T01:09:01.096Z,103074.45
2023-02-14T01:11:30.347Z,103063.61
2023-02-14T01:13:58.562Z,103059.38
2023-02-14T01:16:27.654Z,103060.13
2023-02-14T01:18:56.601Z,103057.39
2023-02-14T01:21:26.660Z,103060.97
2023-02-14T01:23:58.609Z,103060.27
2023-02-14T01:26:26.691Z,103059.34
2023-02-14T01:28:55.022Z,103063.09
2023-02-14T01:31:25.354Z,103055.30
2023-02-14T01:33:53.881Z,103054.32
2023-02-14T01:36:26.484Z,103049.27
2023-02-14T01:38:59.130Z,103056.02
2023-02-14T01:41:28.608Z,103060.88
2023-02-14T01:44:05.288Z,103064.35
2023-02-14T01:46:35.038Z,103058.09
2023-02-14T01:49:11.368Z,103061.69
2023-02-14T01:51:48.807Z,103061.58
2023-02-14T01:54:16.738Z,103060.73
2023-02-14T01:56:52.003Z,103061.04
2023-02-14T01:59:21.307Z,103067.23
2023-02-14T02:01:49.899Z,103064.64
2023-02-14T02:04:24.009Z,103062.46
2023-02-14T02:06:57.088Z,103063.98
2023-02-14T02:09:33.141Z,103066.56
2023-02-14T02:12:01.749Z,103065.89
2023-02-14T02:14:30.386Z,103073.79
2023-02-14T02:17:07.628Z,103071.83
2023-02-14T02:20:06.753Z,103066.94
2023-02-14T02:22:54.602Z,103058.05
2023-02-14T02:25:25.582Z,103057.74
2023-02-14T02:28:08.905Z,103068.25
2023-02-14T02:31:08.242Z,103068.83
2023-02-14T02:33:45.172Z,103063.68
2023-02-14T02:36:43.607Z,103064.16
2023-02-14T02:39:50.651Z,103064.09
2023-02-14T02:42:24.297Z,103068.27
2023-02-14T02:45:08.918Z,103063.61
2023-02-14T02:47:51.416Z,103064.86
2023-02-14T02:50:58.427Z,103066.00
2023-02-14T02:53:39.771Z,103073.49
2023-02-14T02:56:30.227Z,103076.64
2023-02-14T02:59:18.487Z,103078.39
2023-02-14T03:01:59.553Z,103078.13
2023-02-14T03:04:46.135Z,103078.92
2023-02-14T03:07:32.931Z,103079.51
2023-02-14T03:10:21.974Z,103082.42
2023-02-14T03:12:59.405Z,103083.13
2023-02-14T03:15:27.462Z,103082.30
2023-02-14T03:18:31.277Z,103085.34
2023-02-14T03:21:55.593Z,103081.39
2023-02-14T03:24:27.891Z,103089.17
2023-02-14T03:27:04.874Z,103091.02
2023-02-14T03:29:45.249Z,103093.36
2023-02-14T03:32:34.308Z,103092.52
2023-02-14T03:35:49.000Z,103092.16
2023-02-14T03:38:22.719Z,103091.50
2023-02-14T03:41:02.780Z,103091.48
2023-02-14T03:43:35.712Z,103094.69
2023-02-14T03:46:40.809Z,103098.33
2023-02-14T03:49:11.003Z,103097.71
2023-02-14T03:51:39.113Z,103099.06
2023-02-14T03:54:08.305Z,103098.46
2023-02-14T03:56:44.213Z,103098.31
2023-02-14T03:59:21.276Z,103091.67
2023-02-14T04:01:55.532Z,103094.41
2023-02-14T04:04:25.397Z,103090.52
2023-02-14T04:06:53.631Z,103092.13
2023-02-14T04:09:21.738Z,103098.02
2023-02-14T04:11:50.685Z,103099.90
2023-02-14T04:14:18.746Z,103096.88
2023-02-14T04:17:05.254Z,103092.84
2023-02-14T04:19:33.308Z,103085.67
2023-02-14T04:22:01.267Z,103087.88
2023-02-14T04:24:29.275Z,103084.06
2023-02-14T04:27:12.635Z,103085.03
2023-02-14T04:29:40.578Z,103085.30
2023-02-14T04:32:10.073Z,103085.34
2023-02-14T04:34:38.268Z,103090.11
2023-02-14T04:37:06.249Z,103098.79
2023-02-14T04:39:34.593Z,103103.36
2023-02-14T04:42:03.166Z,103097.23
2023-02-14T04:44:31.243Z,103092.85
2023-02-14T04:47:00.002Z,103087.47
2023-02-14T04:49:28.081Z,103095.52
2023-02-14T04:51:56.317Z,103098.90
2023-02-14T04:54:26.877Z,103096.64
2023-02-14T04:56:54.901Z,103093.30
2023-02-14T04:59:24.836Z,103097.96
2023-02-14T05:01:53.684Z,103100.48
2023-02-14T05:04:21.723Z,103104.11
2023-02-14T05:06:49.700Z,103100.63
2023-02-14T05:09:17.786Z,103098.20
2023-02-14T05:11:45.746Z,103098.91
2023-02-14T05:14:14.072Z,103096.02
2023-02-14T05:16:42.066Z,103099.81
2023-02-14T05:19:10.086Z,103098.58
2023-02-14T05:21:38.837Z,103098.02
2023-02-14T05:24:06.982Z,103091.71
2023-02-14T05:26:34.907Z,103087.23
2023-02-14T05:29:02.837Z,103089.49
2023-02-14T05:31:31.069Z,103102.05
2023-02-14T05:33:59.194Z,103101.85
2023-02-14T05:36:27.236Z,103100.69
2023-02-14T05:38:55.452Z,103093.74
2023-02-14T05:41:23.799Z,103098.29
2023-02-14T05:43:51.816Z,103104.24
2023-02-14T05:46:19.844Z,103106.77
2023-02-14T05:48:47.835Z,103107.33
2023-02-14T05:51:15.746Z,103110.30
2023-02-14T05:53:43.752Z,103111.47
2023-02-14T05:56:11.860Z,103114.00
2023-02-14T05:58:39.885Z,103113.37
2023-02-14T06:01:08.071Z,103111.71
2023-02-14T06:03:36.108Z,103120.88
2023-02-14T06:06:04.227Z,103124.20
2023-02-14T06:08:32.205Z,103119.11
2023-02-14T06:11:00.590Z,103120.16
2023-02-14T06:13:28.900Z,103122.38
2023-02-14T06:15:57.162Z,103126.09
2023-02-14T06:18:28.281Z,103127.17
2023-02-14T06:20:56.801Z,103133.96
2023-02-14T06:23:24.983Z,103138.75
2023-02-14T06:25:53.058Z,103132.80
2023-02-14T06:28:21.181Z,103134.92
2023-02-14T06:30:49.467Z,103134.88
2023-02-14T06:33:18.143Z,103131.42
2023-02-14T06:35:46.231Z,103130.41
2023-02-14T06:38:14.558Z,103133.06
2023-02-14T06:40:42.666Z,103137.54
2023-02-14T06:43:10.829Z,103136.04
2023-02-14T06:45:40.059Z,103131.08
2023-02-14T06:48:08.936Z,103133.31
2023-02-14T06:50:37.372Z,103138.59
2023-02-14T06:53:06.811Z,103137.23
2023-02-14T06:55:34.999Z,103139.69
2023-02-14T06:58:03.304Z,103148.71
2023-02-14T07:00:31.372Z,103153.09
2023-02-14T07:02:59.413Z,103148.30
2023-02-14T07:05:29.709Z,103146.23
2023-02-14T07:08:05.199Z,103144.08
2023-02-14T07:10:34.940Z,103154.30
2023-02-14T07:13:04.053Z,103159.30
2023-02-14T07:15:32.062Z,103153.08
2023-02-14T07:18:00.176Z,103151.02
2023-02-14T07:20:28.285Z,103155.02
2023-02-14T07:22:56.308Z,103155.75
2023-02-14T07:25:24.264Z,103160.57
2023-02-14T07:27:52.346Z,103161.86
2023-02-14T07:30:20.597Z,103159.02
2023-02-14T07:32:48.727Z,103164.54
2023-02-14T07:35:16.966Z,103166.49
2023-02-14T07:37:45.538Z,103167.30
2023-02-14T07:40:15.198Z,103170.10
2023-02-14T07:42:43.693Z,103167.25
2023-02-14T07:45:22.440Z,103166.61
2023-02-14T07:47:52.782Z,103169.36
2023-02-14T07:50:22.040Z,103170.62
2023-02-14T07:52:50.725Z,103174.10
2023-02-14T07:55:19.725Z,103177.87
2023-02-14T07:57:49.317Z,103185.33
2023-02-14T08:00:17.720Z,103183.83
2023-02-14T08:02:45.910Z,103178.15
2023-02-14T08:05:15.038Z,103173.01
2023-02-14T08:07:44.403Z,103172.70
2023-02-14T08:10:13.268Z,103173.37
2023-02-14T08:13:00.089Z,103176.91
2023-02-14T08:15:51.289Z,103180.94
2023-02-14T08:18:20.819Z,103179.34
2023-02-14T08:20:50.091Z,103185.92
2023-02-14T08:23:19.177Z,103186.64
2023-02-14T08:25:48.574Z,103187.27
2023-02-14T08:28:17.178Z,103188.05
2023-02-14T08:30:45.334Z,103194.41
2023-02-14T08:33:13.343Z,103197.42
2023-02-14T08:35:41.471Z,103194.48
2023-02-14T08:38:09.506Z,103195.41
2023-02-14T08:40:37.685Z,103203.92
2023-02-14T08:43:06.548Z,103207.77
2023-02-14T08:45:34.732Z,103203.11
2023-02-14T08:48:04.989Z,103199.83
2023-02-14T08:50:33.276Z,103201.98
2023-02-14T08:53:01.775Z,103204.86
2023-02-14T08:55:30.216Z,103199.94
2023-02-14T08:57:58.540Z,103202.29
2023-02-14T09:00:26.966Z,103210.51
2023-02-14T09:02:55.202Z,103208.41
2023-02-14T09:05:23.683Z,103206.20
2023-02-14T09:07:52.028Z,103205.23
2023-02-14T09:10:20.490Z,103204.91
2023-02-14T09:12:48.917Z,103210.38
2023-02-14T09:15:21.148Z,103210.13
2023-02-14T09:17:49.339Z,103213.52
2023-02-14T09:20:17.606Z,103220.26
2023-02-14T09:22:48.982Z,103221.91
2023-02-14T09:25:38.000Z,103224.28
2023-02-14T09:28:09.785Z,103228.65
2023-02-14T09:30:38.208Z,103225.71
2023-02-14T09:33:06.517Z,103229.28
2023-02-14T09:35:54.922Z,103231.67
2023-02-14T09:38:23.105Z,103233.99
2023-02-14T09:40:51.779Z,103239.00
2023-02-14T09:43:30.985Z,103242.71
2023-02-14T09:45:59.442Z,103235.29
2023-02-14T09:48:34.435Z,103234.43
2023-02-14T09:51:07.760Z,103235.45
2023-02-14T09:53:37.400Z,103239.90
2023-02-14T09:56:12.426Z,103239.42
2023-02-14T09:59:22.209Z,103230.45
2023-02-14T10:02:00.979Z,103233.66
2023-02-14T10:04:43.675Z,103240.45
2023-02-14T10:07:46.227Z,103236.02
2023-02-14T10:10:21.294Z,103233.40
2023-02-14T10:13:00.888Z,103231.88
2023-02-14T10:15:40.770Z,103223.69
2023-02-14T10:18:18.277Z,103222.43
2023-02-14T10:20:49.531Z,103221.97
2023-02-14T10:23:27.046Z,103217.49
2023-02-14T10:26:04.696Z,103218.48
2023-02-14T10:28:40.223Z,103216.84
2023-02-14T10:31:55.667Z,103215.11
2023-02-14T10:34:48.280Z,103216.63
2023-02-14T10:37:16.310Z,103213.88
2023-02-14T10:39:53.494Z,103212.09
2023-02-14T10:42:59.572Z,103211.95
2023-02-14T10:45:30.488Z,103212.40
2023-02-14T10:48:26.346Z,103213.04
2023-02-14T10:51:17.234Z,103203.00
2023-02-14T10:53:54.456Z,103199.64
2023-02-14T10:56:35.215Z,103208.58
2023-02-14T10:59:26.318Z,103210.77
2023-02-14T11:01:54.853Z,103202.02
2023-02-14T11:04:24.138Z,103201.02
2023-02-14T11:06:52.944Z,103206.95
2023-02-14T11:09:21.741Z,103203.74
2023-02-14T11:11:59.294Z,103200.55
2023-02-14T11:14:36.665Z,103204.68
2023-02-14T11:17:30.465Z,103209.03
2023-02-14T11:20:06.686Z,103205.70
2023-02-14T11:22:41.450Z,103198.44
2023-02-14T11:25:29.905Z,103196.77
2023-02-14T11:28:21.987Z,103190.05
2023-02-14T11:30:50.699Z,103189.45
2023-02-14T11:33:40.893Z,103190.17
2023-02-14T11:36:15.394Z,103185.54
2023-02-14T11:38:44.097Z,103183.96
2023-02-14T11:41:14.167Z,103180.04
2023-02-14T11:43:43.931Z,103187.39
2023-02-14T11:46:21.691Z,103187.87
2023-02-14T11:49:07.656Z,103186.52
2023-02-14T11:51:35.723Z,103181.99
2023-02-14T11:54:06.865Z,103187.23
2023-02-14T11:56:53.981Z,103192.56
2023-02-14T11:59:51.235Z,103193.64
2023-02-14T12:02:32.865Z,103188.91
2023-02-14T12:05:04.028Z,103187.61
2023-02-14T12:07:38.269Z,103187.59
2023-02-14T12:10:15.853Z,103191.71
2023-02-14T12:12:52.016Z,103185.66
2023-02-14T12:15:23.552Z,103177.91
2023-02-14T12:17:54.757Z,103180.41
2023-02-14T12:20:35.437Z,103182.67
2023-02-14T12:23:22.633Z,103181.42
2023-02-14T12:25:53.221Z,103177.30
2023-02-14T12:28:25.196Z,103172.99
2023-02-14T12:30:53.391Z,103173.33
2023-02-14T12:33:22.621Z,103171.40
2023-02-14T12:36:29.130Z,103170.60
2023-02-14T12:39:13.930Z,103173.48
2023-02-14T12:42:26.119Z,103158.55
2023-02-14T12:45:01.568Z,103157.63
2023-02-14T12:47:55.468Z,103159.58
2023-02-14T12:50:47.018Z,103160.84
2023-02-14T12:53:21.082Z,103160.73
2023-02-14T12:56:10.899Z,103155.05
2023-02-14T12:59:16.713Z,103152.09
2023-02-14T13:02:00.297Z,103155.84
2023-02-14T13:04:56.238Z,103155.33
2023-02-14T13:07:27.292Z,103155.11
2023-02-14T13:09:59.944Z,103148.36
2023-02-14T13:13:06.967Z,103143.11
2023-02-14T13:15:52.920Z,103143.55
2023-02-14T13:18:40.228Z,103145.52
2023-02-14T13:21:10.133Z,103149.52
2023-02-14T13:23:42.514Z,103148.91
2023-02-14T13:26:13.216Z,103151.48
2023-02-14T13:28:52.173Z,103150.23
2023-02-14T13:31:20.380Z,103151.34
2023-02-14T13:33:55.189Z,103144.42
2023-02-14T13:36:23.205Z,103137.11
2023-02-14T13:41:21.167Z,103127.44
2023-02-14T13:43:51.393Z,103122.87
2023-02-14T13:46:32.685Z,103116.05
2023-02-14T13:49:16.958Z,103111.88
2023-02-14T13:51:50.420Z,103115.11
2023-02-14T13:54:35.483Z,103114.13
2023-02-14T13:57:23.869Z,103115.23
2023-02-14T14:00:19.989Z,103112.98
2023-02-14T14:02:48.909Z,103108.71
2023-02-14T14:05:40.726Z,103108.15
2023-02-14T14:08:21.107Z,103106.33
2023-02-14T14:10:59.758Z,103100.60
2023-02-14T14:13:40.416Z,103102.26
2023-02-14T14:16:24.261Z,103101.73
2023-02-14T14:19:30.708Z,103098.39
2023-02-14T14:22:06.283Z,103094.32
2023-02-14T14:24:38.253Z,103093.44
2023-02-14T14:27:15.136Z,103091.38
2023-02-14T14:29:54.031Z,103090.09
2023-02-14T14:32:30.666Z,103087.02
2023-02-14T14:35:01.746Z,103081.73
2023-02-14T14:37:37.184Z,103084.84
2023-02-14T14:40:08.326Z,103086.42
2023-02-14T14:42:38.340Z,103084.99
2023-02-14T14:45:25.944Z,103081.20
2023-02-14T14:47:56.164Z,103081.16
2023-02-14T14:50:25.842Z,103084.73
2023-02-14T14:53:21.654Z,103086.29
2023-02-14T14:55:52.245Z,103089.46
2023-02-14T14:58:38.570Z,103085.31
2023-02-14T15:01:08.699Z,103087.09
2023-02-14T15:03:36.858Z,103093.36
2023-02-14T15:06:09.414Z,103090.97
2023-02-14T15:08:37.523Z,103084.43
2023-02-14T15:11:43.961Z,103080.48
2023-02-14T15:14:21.295Z,103082.83
2023-02-14T15:16:57.869Z,103087.86
2023-02-14T15:19:37.393Z,103090.20
2023-02-14T15:22:07.919Z,103084.20
2023-02-14T15:24:37.953Z,103086.02
2023-02-14T15:27:06.778Z,103088.21
2023-02-14T15:29:35.110Z,103090.36
2023-02-14T15:32:03.866Z,103087.48
2023-02-14T15:34:33.767Z,103086.24
2023-02-14T15:37:06.730Z,103085.82
2023-02-14T15:39:43.698Z,103089.55
2023-02-14T15:42:26.218Z,103089.00
2023-02-14T15:45:28.355Z,103087.55
2023-02-14T15:48:03.167Z,103084.36
2023-02-14T15:50:50.613Z,103088.77
2023-02-14T15:53:31.238Z,103091.32
2023-02-14T15:56:13.780Z,103089.90
2023-02-14T15:58:42.278Z,103087.41
2023-02-14T16:01:10.247Z,103089.23
2023-02-14T16:03:40.328Z,103091.86
2023-02-14T16:06:15.620Z,103093.76
2023-02-14T16:08:43.973Z,103092.55
2023-02-14T16:11:13.728Z,103093.23
2023-02-14T16:13:46.774Z,103096.33
2023-02-14T16:16:15.300Z,103096.77
2023-02-14T16:18:48.388Z,103096.34
2023-02-14T16:21:21.478Z,103095.34
2023-02-14T16:24:11.476Z,103102.27
2023-02-14T16:26:41.644Z,103107.05
2023-02-14T16:29:12.179Z,103104.65
2023-02-14T16:32:06.288Z,103100.20
2023-02-14T16:34:34.594Z,103107.35
2023-02-14T16:37:07.679Z,103110.48
2023-02-14T16:39:36.370Z,103112.42
2023-02-14T16:42:05.547Z,103111.80
2023-02-14T16:44:33.705Z,103111.24
2023-02-14T16:47:02.206Z,103118.52
2023-02-14T16:49:30.409Z,103118.95
2023-02-14T16:51:58.522Z,103117.27
2023-02-14T16:54:26.999Z,103121.02
2023-02-14T16:57:03.141Z,103116.77
2023-02-14T16:59:31.331Z,103114.77
2023-02-14T17:01:59.897Z,103116.45
2023-02-14T17:04:28.148Z,103117.17
2023-02-14T17:06:57.286Z,103115.42
2023-02-14T17:09:28.332Z,103119.81
2023-02-14T17:11:57.745Z,103119.58
2023-02-14T17:14:28.050Z,103121.75
2023-02-14T17:16:56.301Z,103126.44
2023-02-14T17:19:25.052Z,103126.14
2023-02-14T17:21:53.135Z,103128.61
2023-02-14T17:24:21.277Z,103122.02
2023-02-14T17:26:49.400Z,103119.13
2023-02-14T17:29:17.514Z,103125.06
2023-02-14T17:31:45.867Z,103127.16
2023-02-14T17:34:14.141Z,103126.82
2023-02-14T17:36:42.305Z,103124.35
2023-02-14T17:39:11.017Z,103125.27
2023-02-14T17:41:39.586Z,103128.61
2023-02-14T17:44:07.896Z,103123.75
2023-02-14T17:46:36.133Z,103123.25
2023-02-14T17:49:04.179Z,103128.59
2023-02-14T17:51:32.981Z,103131.01
2023-02-14T17:54:01.105Z,103126.95
2023-02-14T17:56:29.290Z,103127.91
2023-02-14T17:58:57.573Z,103132.58
2023-02-14T18:01:31.677Z,103133.50
2023-02-14T18:03:59.747Z,103129.83
2023-02-14T18:06:27.731Z,103128.21
2023-02-14T18:08:58.667Z,103129.91
2023-02-14T18:11:28.170Z,103130.48
2023-02-14T18:13:56.563Z,103124.28
2023-02-14T18:16:25.018Z,103119.90
2023-02-14T18:18:54.992Z,103119.37
2023-02-14T18:21:24.918Z,103116.69
2023-02-14T18:23:53.500Z,103123.69
2023-02-14T18:26:21.655Z,103120.86
2023-02-14T18:28:51.370Z,103118.20
2023-02-14T18:31:19.760Z,103119.60
2023-02-14T18:33:48.879Z,103122.15
2023-02-14T18:36:18.910Z,103123.81
2023-02-14T18:38:47.993Z,103121.27
2023-02-14T18:41:19.439Z,103119.20
2023-02-14T18:43:49.108Z,103119.29
2023-02-14T18:46:19.882Z,103121.96
2023-02-14T18:48:48.118Z,103119.77
2023-02-14T18:51:21.981Z,103121.77
2023-02-14T18:53:54.592Z,103117.90
2023-02-14T18:56:25.601Z,103113.68
2023-02-14T18:58:59.343Z,103114.74
2023-02-14T19:01:30.636Z,103113.03
2023-02-14T19:04:03.301Z,103114.71
2023-02-14T19:06:31.443Z,103116.29
2023-02-14T19:08:59.675Z,103115.50
2023-02-14T19:11:31.587Z,103112.52
2023-02-14T19:14:00.910Z,103114.71
2023-02-14T19:16:31.207Z,103114.21
2023-02-14T19:18:59.924Z,103116.53
2023-02-14T19:21:32.445Z,103118.75
2023-02-14T19:24:02.609Z,103120.55
2023-02-14T19:26:37.198Z,103120.30
2023-02-14T19:29:07.717Z,103119.52
2023-02-14T19:31:48.626Z,103123.09
2023-02-14T19:34:22.328Z,103118.63
2023-02-14T19:36:51.827Z,103111.64
2023-02-14T19:39:20.767Z,103119.77
2023-02-14T19:41:48.912Z,103119.50
2023-02-14T19:44:17.919Z,103122.64
2023-02-14T19:46:46.493Z,103120.32
2023-02-14T19:49:18.682Z,103120.02
2023-02-14T19:51:47.838Z,103124.30
2023-02-14T19:54:16.684Z,103121.09
2023-02-14T19:56:46.272Z,103122.65
2023-02-14T19:59:21.335Z,103119.95
2023-02-14T20:01:53.630Z,103118.88
2023-02-14T20:04:27.587Z,103117.64
2023-02-14T20:06:56.325Z,103114.77
2023-02-14T20:09:25.692Z,103108.98
2023-02-14T20:11:55.654Z,103109.66
2023-02-14T20:14:25.086Z,103108.41
2023-02-14T20:16:55.302Z,103105.95
2023-02-14T20:19:27.350Z,103104.65
2023-02-14T20:21:55.839Z,103101.85
2023-02-14T20:24:26.432Z,103102.48
2023-02-14T20:26:54.738Z,103102.14
2023-02-14T20:29:23.445Z,103098.20
2023-02-14T20:31:54.455Z,103098.67
2023-02-14T20:34:24.460Z,103095.98
2023-02-14T20:36:55.473Z,103095.61
2023-02-14T20:39:27.976Z,103098.88
2023-02-14T20:41:56.100Z,103096.55
2023-02-14T20:44:26.584Z,103094.82
2023-02-14T20:50:24.871Z,103089.92
2023-02-14T20:53:24.548Z,103088.14
2023-02-14T20:56:08.238Z,103084.53
2023-02-14T20:58:37.476Z,103082.38
2023-02-14T21:01:09.978Z,103083.58
2023-02-14T21:03:38.266Z,103087.59
2023-02-14T21:06:07.405Z,103092.78
2023-02-14T21:08:36.089Z,103095.78
2023-02-14T21:11:05.143Z,103096.67
2023-02-14T21:13:33.910Z,103091.95
2023-02-14T21:16:11.508Z,103089.96
2023-02-14T21:18:39.569Z,103093.60
2023-02-14T21:21:11.344Z,103092.06
2023-02-14T21:23:39.828Z,103097.73
2023-02-14T21:26:08.709Z,103102.02
2023-02-14T21:28:37.496Z,103097.31
2023-02-14T21:31:06.534Z,103101.19
2023-02-14T21:33:34.646Z,103094.57
2023-02-14T21:36:06.581Z,103099.00
2023-02-14T21:38:34.934Z,103095.21
2023-02-14T21:41:05.142Z,103092.08
2023-02-14T21:43:34.296Z,103091.88
2023-02-14T21:46:10.169Z,103089.52
2023-02-14T21:48:57.608Z,103091.17
2023-02-14T21:51:27.818Z,103087.20
2023-02-14T21:53:56.080Z,103082.94
2023-02-14T21:56:24.320Z,103085.77
2023-02-14T21:58:55.697Z,103084.05
2023-02-14T22:01:27.387Z,103082.00
2023-02-14T22:03:55.840Z,103079.39
2023-02-14T22:06:25.818Z,103079.02
2023-02-14T22:08:58.752Z,103081.15
2023-02-14T22:11:28.368Z,103079.02
2023-02-14T22:13:56.532Z,103083.13
2023-02-14T22:16:24.907Z,103083.59
2023-02-14T22:18:53.192Z,103087.83
2023-02-14T22:21:23.283Z,103089.86
2023-02-14T22:23:51.333Z,103092.48
2023-02-14T22:26:23.056Z,103095.09
2023-02-14T22:28:54.052Z,103093.34
2023-02-14T22:31:26.690Z,103096.14
2023-02-14T22:33:55.035Z,103098.05
2023-02-14T22:36:23.214Z,103097.63
2023-02-14T22:38:51.234Z,103099.90
2023-02-14T22:41:23.372Z,103099.23
2023-02-14T22:43:54.464Z,103093.66
2023-02-14T22:46:27.654Z,103088.84
2023-02-14T22:48:56.272Z,103088.77
2023-02-14T22:51:25.535Z,103092.20
2023-02-14T22:53:58.123Z,103094.04
2023-02-14T22:56:31.846Z,103086.98
2023-02-14T22:59:10.489Z,103090.30
2023-02-14T23:01:38.750Z,103084.52
2023-02-14T23:04:07.454Z,103083.77
2023-02-14T23:06:36.054Z,103074.90
2023-02-14T23:09:06.075Z,103071.35
2023-02-14T23:11:36.538Z,103067.44
2023-02-14T23:14:23.308Z,103069.99
2023-02-14T23:17:10.669Z,103067.71
2023-02-14T23:19:57.896Z,103065.63
2023-02-14T23:22:29.230Z,103060.05
2023-02-14T23:24:58.664Z,103054.80
2023-02-14T23:27:37.574Z,103049.97
2023-02-14T23:30:08.106Z,103047.27
2023-02-14T23:32:36.686Z,103046.63
2023-02-14T23:35:06.673Z,103044.98
2023-02-14T23:37:35.333Z,103043.11
2023-02-14T23:40:04.327Z,103041.50
2023-02-14T23:42:32.731Z,103040.53
2023-02-14T23:45:20.979Z,103040.64
2023-02-14T23:47:49.537Z,103034.64
2023-02-14T23:50:18.187Z,103033.61
2023-02-14T23:52:46.597Z,103033.78
2023-02-14T23:55:19.724Z,103029.98
2023-02-14T23:57:47.930Z,103030.06
